sensor_id;sensor_type;location;lat;lon;timestamp;pressure;altitude;pressure_sealevel;temperature;humidity
28312;BME280;15572;48.810;9.148;2023-04-29T00:00:05;97792.25;;;13.20;100.00
28312;BME280;15572;48.810;9.148;2023-04-29T00:05:03;97781.13;;;13.28;100.00
28312;BME280;15572;48.810;9.148;2023-04-29T00:10:02;97779.41;;;13.33;100.00
28312;BME280;15572;48.810;9.148;2023-04-29T00:14:58;97783.91;;;13.21;100.00
28312;BME280;15572;48.810;9.148;2023-04-29T00:19:57;97782.63;;;13.24;100.00
28312;BME280;15572;48.810;9.148;2023-04-29T00:24:53;97791.00;;;13.22;100.00
28312;BME280;15572;48.810;9.148;2023-04-29T00:29:51;97779.34;;;13.15;100.00
28312;BME280;15572;48.810;9.148;2023-04-29T00:34:48;97782.91;;;13.16;100.00
28312;BME280;15572;48.810;9.148;2023-04-29T00:39:44;97781.59;;;13.25;100.00
28312;BME280;15572;48.810;9.148;2023-04-29T00:44:40;97785.78;;;13.21;100.00
28312;BME280;15572;48.810;9.148;2023-04-29T00:49:39;97793.19;;;13.07;100.00
28312;BME280;15572;48.810;9.148;2023-04-29T00:54:35;97790.69;;;13.05;100.00
28312;BME280;15572;48.810;9.148;2023-04-29T00:59:32;97800.34;;;13.01;100.00
28312;BME280;15572;48.810;9.148;2023-04-29T01:04:29;97797.63;;;13.01;100.00
28312;BME280;15572;48.810;9.148;2023-04-29T01:09:45;97792.06;;;13.21;100.00
28312;BME280;15572;48.810;9.148;2023-04-29T01:14:47;97792.53;;;13.36;100.00
28312;BME280;15572;48.810;9.148;2023-04-29T01:19:49;97801.63;;;13.48;100.00
28312;BME280;15572;48.810;9.148;2023-04-29T01:24:49;97800.28;;;13.76;100.00
28312;BME280;15572;48.810;9.148;2023-04-29T01:29:51;97804.28;;;13.73;100.00
28312;BME280;15572;48.810;9.148;2023-04-29T01:34:56;97802.56;;;13.61;100.00
28312;BME280;15572;48.810;9.148;2023-04-29T01:39:59;97814.38;;;13.48;100.00
28312;BME280;15572;48.810;9.148;2023-04-29T01:45:05;97806.59;;;13.33;100.00
28312;BME280;15572;48.810;9.148;2023-04-29T01:50:02;97801.66;;;13.24;100.00
28312;BME280;15572;48.810;9.148;2023-04-29T01:55:00;97801.13;;;13.08;100.00
28312;BME280;15572;48.810;9.148;2023-04-29T01:59:57;97806.94;;;12.87;100.00
28312;BME280;15572;48.810;9.148;2023-04-29T02:04:54;97798.66;;;12.76;100.00
28312;BME280;15572;48.810;9.148;2023-04-29T02:09:50;97801.47;;;12.62;100.00
28312;BME280;15572;48.810;9.148;2023-04-29T02:14:51;97804.84;;;12.58;100.00
28312;BME280;15572;48.810;9.148;2023-04-29T02:19:47;97800.91;;;12.54;100.00
28312;BME280;15572;48.810;9.148;2023-04-29T02:24:44;97812.09;;;12.33;100.00
28312;BME280;15572;48.810;9.148;2023-04-29T02:29:40;97812.50;;;12.30;100.00
28312;BME280;15572;48.810;9.148;2023-04-29T02:34:38;97805.44;;;12.29;100.00
28312;BME280;15572;48.810;9.148;2023-04-29T02:39:35;97813.78;;;12.27;100.00
28312;BME280;15572;48.810;9.148;2023-04-29T02:44:31;97808.66;;;12.12;100.00
28312;BME280;15572;48.810;9.148;2023-04-29T02:49:28;97815.31;;;12.10;100.00
28312;BME280;15572;48.810;9.148;2023-04-29T02:54:26;97814.75;;;12.01;100.00
28312;BME280;15572;48.810;9.148;2023-04-29T02:59:22;97818.34;;;11.75;100.00
28312;BME280;15572;48.810;9.148;2023-04-29T03:04:19;97817.28;;;11.70;100.00
28312;BME280;15572;48.810;9.148;2023-04-29T03:09:15;97819.00;;;11.64;100.00
28312;BME280;15572;48.810;9.148;2023-04-29T03:14:13;97826.94;;;11.53;100.00
28312;BME280;15572;48.810;9.148;2023-04-29T03:19:09;97824.88;;;11.42;100.00
28312;BME280;15572;48.810;9.148;2023-04-29T03:24:06;97829.25;;;11.29;100.00
28312;BME280;15572;48.810;9.148;2023-04-29T03:29:02;97825.09;;;11.20;100.00
28312;BME280;15572;48.810;9.148;2023-04-29T03:34:00;97814.06;;;11.09;100.00
28312;BME280;15572;48.810;9.148;2023-04-29T03:38:57;97822.78;;;10.91;100.00
28312;BME280;15572;48.810;9.148;2023-04-29T03:43:53;97812.16;;;10.76;100.00
28312;BME280;15572;48.810;9.148;2023-04-29T03:48:54;97815.25;;;10.60;100.00
28312;BME280;15572;48.810;9.148;2023-04-29T03:53:53;97817.31;;;10.45;100.00
28312;BME280;15572;48.810;9.148;2023-04-29T03:58:50;97825.00;;;10.35;100.00
28312;BME280;15572;48.810;9.148;2023-04-29T04:03:47;97813.94;;;10.23;100.00
28312;BME280;15572;48.810;9.148;2023-04-29T04:08:43;97829.50;;;10.21;100.00
28312;BME280;15572;48.810;9.148;2023-04-29T04:13:41;97830.13;;;10.17;100.00
28312;BME280;15572;48.810;9.148;2023-04-29T04:18:38;97838.75;;;10.53;100.00
28312;BME280;15572;48.810;9.148;2023-04-29T04:23:35;97854.44;;;10.77;100.00
28312;BME280;15572;48.810;9.148;2023-04-29T04:28:34;97859.03;;;10.96;100.00
28312;BME280;15572;48.810;9.148;2023-04-29T04:33:32;97860.91;;;10.96;100.00
28312;BME280;15572;48.810;9.148;2023-04-29T04:38:28;97868.66;;;10.99;100.00
28312;BME280;15572;48.810;9.148;2023-04-29T04:43:27;97874.03;;;10.86;100.00
28312;BME280;15572;48.810;9.148;2023-04-29T04:48:23;97882.09;;;10.60;100.00
28312;BME280;15572;48.810;9.148;2023-04-29T04:53:21;97885.00;;;10.58;100.00
28312;BME280;15572;48.810;9.148;2023-04-29T04:58:18;97888.63;;;10.78;100.00
28312;BME280;15572;48.810;9.148;2023-04-29T05:03:14;97895.94;;;11.04;100.00
28312;BME280;15572;48.810;9.148;2023-04-29T05:08:10;97909.09;;;11.20;100.00
28312;BME280;15572;48.810;9.148;2023-04-29T05:13:08;97912.44;;;11.35;100.00
28312;BME280;15572;48.810;9.148;2023-04-29T05:18:05;97925.75;;;11.44;100.00
28312;BME280;15572;48.810;9.148;2023-04-29T05:23:01;97933.06;;;11.56;100.00
28312;BME280;15572;48.810;9.148;2023-04-29T05:27:58;97936.38;;;11.71;100.00
28312;BME280;15572;48.810;9.148;2023-04-29T05:32:56;97946.63;;;11.82;100.00
28312;BME280;15572;48.810;9.148;2023-04-29T05:37:52;97949.53;;;12.01;100.00
28312;BME280;15572;48.810;9.148;2023-04-29T05:42:49;97953.03;;;12.21;100.00
28312;BME280;15572;48.810;9.148;2023-04-29T05:47:46;97947.81;;;12.26;100.00
28312;BME280;15572;48.810;9.148;2023-04-29T05:52:44;97957.75;;;12.45;100.00
28312;BME280;15572;48.810;9.148;2023-04-29T05:57:40;97967.53;;;12.59;100.00
28312;BME280;15572;48.810;9.148;2023-04-29T06:02:36;97975.03;;;12.64;100.00
28312;BME280;15572;48.810;9.148;2023-04-29T06:07:34;97981.53;;;12.63;100.00
28312;BME280;15572;48.810;9.148;2023-04-29T06:12:31;97998.44;;;12.65;100.00
28312;BME280;15572;48.810;9.148;2023-04-29T06:17:28;98000.69;;;12.75;100.00
28312;BME280;15572;48.810;9.148;2023-04-29T06:22:24;98005.19;;;12.94;100.00
28312;BME280;15572;48.810;9.148;2023-04-29T06:27:21;98008.53;;;13.02;100.00
28312;BME280;15572;48.810;9.148;2023-04-29T06:32:18;98005.47;;;12.86;100.00
28312;BME280;15572;48.810;9.148;2023-04-29T06:37:15;98017.63;;;12.77;100.00
28312;BME280;15572;48.810;9.148;2023-04-29T06:42:11;98019.88;;;12.86;100.00
28312;BME280;15572;48.810;9.148;2023-04-29T06:47:08;98035.09;;;12.94;100.00
28312;BME280;15572;48.810;9.148;2023-04-29T06:52:06;98040.50;;;13.00;100.00
28312;BME280;15572;48.810;9.148;2023-04-29T06:57:02;98045.72;;;13.08;100.00
28312;BME280;15572;48.810;9.148;2023-04-29T07:01:59;98044.44;;;13.18;100.00
28312;BME280;15572;48.810;9.148;2023-04-29T07:06:55;98054.84;;;13.27;100.00
28312;BME280;15572;48.810;9.148;2023-04-29T07:11:54;98046.34;;;13.48;100.00
28312;BME280;15572;48.810;9.148;2023-04-29T07:16:54;98059.13;;;13.41;100.00
28312;BME280;15572;48.810;9.148;2023-04-29T07:21:50;98066.69;;;13.39;100.00
28312;BME280;15572;48.810;9.148;2023-04-29T07:26:47;98079.94;;;13.29;100.00
28312;BME280;15572;48.810;9.148;2023-04-29T07:31:44;98079.00;;;13.42;100.00
28312;BME280;15572;48.810;9.148;2023-04-29T07:36:41;98080.84;;;13.55;100.00
28312;BME280;15572;48.810;9.148;2023-04-29T07:41:37;98074.28;;;13.62;100.00
28312;BME280;15572;48.810;9.148;2023-04-29T07:46:34;98079.22;;;13.78;100.00
28312;BME280;15572;48.810;9.148;2023-04-29T07:51:32;98082.66;;;13.67;100.00
28312;BME280;15572;48.810;9.148;2023-04-29T07:56:28;98091.59;;;13.74;100.00
28312;BME280;15572;48.810;9.148;2023-04-29T08:01:25;98099.38;;;13.71;100.00
28312;BME280;15572;48.810;9.148;2023-04-29T08:06:22;98098.63;;;13.88;100.00
28312;BME280;15572;48.810;9.148;2023-04-29T08:11:20;98103.78;;;13.97;100.00
28312;BME280;15572;48.810;9.148;2023-04-29T08:16:20;98103.91;;;14.08;100.00
28312;BME280;15572;48.810;9.148;2023-04-29T08:21:18;98104.94;;;14.14;100.00
28312;BME280;15572;48.810;9.148;2023-04-29T08:26:15;98111.97;;;14.21;100.00
28312;BME280;15572;48.810;9.148;2023-04-29T08:31:16;98115.03;;;14.07;100.00
28312;BME280;15572;48.810;9.148;2023-04-29T08:36:13;98122.34;;;14.06;100.00
28312;BME280;15572;48.810;9.148;2023-04-29T08:41:09;98122.50;;;13.86;100.00
28312;BME280;15572;48.810;9.148;2023-04-29T08:46:09;98118.22;;;13.66;100.00
28312;BME280;15572;48.810;9.148;2023-04-29T08:51:10;98120.28;;;13.70;100.00
28312;BME280;15572;48.810;9.148;2023-04-29T08:56:10;98132.94;;;13.89;100.00
28312;BME280;15572;48.810;9.148;2023-04-29T09:01:09;98124.19;;;14.12;100.00
28312;BME280;15572;48.810;9.148;2023-04-29T09:06:08;98123.69;;;14.22;100.00
28312;BME280;15572;48.810;9.148;2023-04-29T09:11:07;98120.69;;;14.37;100.00
28312;BME280;15572;48.810;9.148;2023-04-29T09:16:09;98128.75;;;14.50;100.00
28312;BME280;15572;48.810;9.148;2023-04-29T09:21:13;98129.56;;;14.50;100.00
28312;BME280;15572;48.810;9.148;2023-04-29T09:26:10;98124.19;;;14.68;100.00
28312;BME280;15572;48.810;9.148;2023-04-29T09:31:06;98133.78;;;14.71;100.00
28312;BME280;15572;48.810;9.148;2023-04-29T09:36:03;98147.41;;;14.71;100.00
28312;BME280;15572;48.810;9.148;2023-04-29T09:41:08;98147.03;;;14.67;100.00
28312;BME280;15572;48.810;9.148;2023-04-29T09:46:11;98151.59;;;14.49;100.00
28312;BME280;15572;48.810;9.148;2023-04-29T09:51:07;98155.31;;;14.54;100.00
28312;BME280;15572;48.810;9.148;2023-04-29T09:56:05;98151.69;;;14.60;100.00
28312;BME280;15572;48.810;9.148;2023-04-29T10:01:03;98159.69;;;14.80;97.27
28312;BME280;15572;48.810;9.148;2023-04-29T10:06:01;98147.59;;;14.94;94.61
28312;BME280;15572;48.810;9.148;2023-04-29T10:10:59;98141.78;;;15.09;93.66
28312;BME280;15572;48.810;9.148;2023-04-29T10:16:12;98147.91;;;15.23;93.64
28312;BME280;15572;48.810;9.148;2023-04-29T10:21:10;98152.91;;;15.26;95.10
28312;BME280;15572;48.810;9.148;2023-04-29T10:26:11;98146.41;;;15.27;91.32
28312;BME280;15572;48.810;9.148;2023-04-29T10:31:11;98133.09;;;15.00;89.02
28312;BME280;15572;48.810;9.148;2023-04-29T10:36:08;98157.53;;;15.07;88.68
28312;BME280;15572;48.810;9.148;2023-04-29T10:41:09;98148.75;;;15.05;89.25
28312;BME280;15572;48.810;9.148;2023-04-29T10:46:20;98122.53;;;15.04;90.31
28312;BME280;15572;48.810;9.148;2023-04-29T10:51:27;98139.56;;;15.17;90.54
28312;BME280;15572;48.810;9.148;2023-04-29T10:56:34;98136.53;;;16.22;77.72
28312;BME280;15572;48.810;9.148;2023-04-29T11:01:46;98128.56;;;16.20;75.13
28312;BME280;15572;48.810;9.148;2023-04-29T11:06:44;98129.63;;;16.08;79.78
28312;BME280;15572;48.810;9.148;2023-04-29T11:11:43;98122.22;;;15.96;83.75
28312;BME280;15572;48.810;9.148;2023-04-29T11:16:52;98119.59;;;15.90;80.71
28312;BME280;15572;48.810;9.148;2023-04-29T11:22:03;98125.34;;;15.82;70.34
28312;BME280;15572;48.810;9.148;2023-04-29T11:27:03;98121.22;;;15.79;73.92
28312;BME280;15572;48.810;9.148;2023-04-29T11:32:01;98126.56;;;16.16;74.53
28312;BME280;15572;48.810;9.148;2023-04-29T11:36:58;98120.38;;;15.79;78.58
28312;BME280;15572;48.810;9.148;2023-04-29T11:42:02;98110.31;;;15.61;81.80
28312;BME280;15572;48.810;9.148;2023-04-29T11:47:02;98129.66;;;15.41;84.75
28312;BME280;15572;48.810;9.148;2023-04-29T11:51:59;98121.78;;;15.51;83.95
28312;BME280;15572;48.810;9.148;2023-04-29T11:56:57;98127.22;;;15.70;84.81
28312;BME280;15572;48.810;9.148;2023-04-29T12:01:54;98131.59;;;16.42;83.23
28312;BME280;15572;48.810;9.148;2023-04-29T12:06:52;98126.97;;;16.54;78.11
28312;BME280;15572;48.810;9.148;2023-04-29T12:11:49;98129.28;;;16.92;80.52
28312;BME280;15572;48.810;9.148;2023-04-29T12:16:45;98139.72;;;16.95;76.08
28312;BME280;15572;48.810;9.148;2023-04-29T12:21:48;98142.13;;;16.92;75.38
28312;BME280;15572;48.810;9.148;2023-04-29T12:26:48;98152.38;;;17.48;73.78
28312;BME280;15572;48.810;9.148;2023-04-29T12:31:46;98145.59;;;17.50;72.64
28312;BME280;15572;48.810;9.148;2023-04-29T12:36:43;98152.44;;;17.13;74.90
28312;BME280;15572;48.810;9.148;2023-04-29T12:41:41;98154.31;;;16.54;77.51
28312;BME280;15572;48.810;9.148;2023-04-29T12:46:40;98159.75;;;17.47;72.76
28312;BME280;15572;48.810;9.148;2023-04-29T12:51:36;98164.34;;;18.55;68.53
28312;BME280;15572;48.810;9.148;2023-04-29T12:56:33;98166.53;;;18.25;65.91
28312;BME280;15572;48.810;9.148;2023-04-29T13:01:29;98161.69;;;17.87;67.61
28312;BME280;15572;48.810;9.148;2023-04-29T13:06:28;98160.19;;;18.52;65.14
28312;BME280;15572;48.810;9.148;2023-04-29T13:11:25;98161.50;;;18.50;64.86
28312;BME280;15572;48.810;9.148;2023-04-29T13:16:21;98157.91;;;17.88;67.41
28312;BME280;15572;48.810;9.148;2023-04-29T13:21:19;98160.78;;;18.55;65.72
28312;BME280;15572;48.810;9.148;2023-04-29T13:26:17;98166.22;;;18.38;64.15
28312;BME280;15572;48.810;9.148;2023-04-29T13:31:13;98157.91;;;18.49;65.54
28312;BME280;15572;48.810;9.148;2023-04-29T13:36:10;98159.16;;;18.25;66.99
28312;BME280;15572;48.810;9.148;2023-04-29T13:41:06;98180.84;;;17.98;64.84
28312;BME280;15572;48.810;9.148;2023-04-29T13:46:05;98176.16;;;17.59;67.17
28312;BME280;15572;48.810;9.148;2023-04-29T13:51:02;98184.19;;;17.14;69.51
28312;BME280;15572;48.810;9.148;2023-04-29T13:55:59;98190.84;;;16.71;73.08
28312;BME280;15572;48.810;9.148;2023-04-29T14:00:55;98178.16;;;16.47;73.63
28312;BME280;15572;48.810;9.148;2023-04-29T14:05:53;98172.88;;;16.22;75.70
28312;BME280;15572;48.810;9.148;2023-04-29T14:10:49;98173.75;;;16.34;75.33
28312;BME280;15572;48.810;9.148;2023-04-29T14:15:46;98174.88;;;16.15;75.78
28312;BME280;15572;48.810;9.148;2023-04-29T14:20:43;98171.16;;;16.51;75.28
28312;BME280;15572;48.810;9.148;2023-04-29T14:25:40;98181.38;;;16.44;74.09
28312;BME280;15572;48.810;9.148;2023-04-29T14:30:37;98182.97;;;16.22;73.97
28312;BME280;15572;48.810;9.148;2023-04-29T14:35:33;98188.25;;;16.05;76.31
28312;BME280;15572;48.810;9.148;2023-04-29T14:40:30;98189.97;;;16.18;75.62
28312;BME280;15572;48.810;9.148;2023-04-29T14:45:28;98189.72;;;16.19;75.97
28312;BME280;15572;48.810;9.148;2023-04-29T14:50:24;98213.03;;;16.04;75.86
28312;BME280;15572;48.810;9.148;2023-04-29T14:55:21;98210.28;;;15.55;77.11
28312;BME280;15572;48.810;9.148;2023-04-29T15:00:17;98211.53;;;15.60;78.75
28312;BME280;15572;48.810;9.148;2023-04-29T15:05:15;98213.31;;;15.66;77.91
28312;BME280;15572;48.810;9.148;2023-04-29T15:10:12;98210.94;;;15.51;78.81
28312;BME280;15572;48.810;9.148;2023-04-29T15:15:09;98228.69;;;15.42;80.00
28312;BME280;15572;48.810;9.148;2023-04-29T15:20:06;98224.72;;;15.20;81.91
28312;BME280;15572;48.810;9.148;2023-04-29T15:25:06;98231.66;;;14.97;82.58
28312;BME280;15572;48.810;9.148;2023-04-29T15:30:04;98238.53;;;14.75;84.83
28312;BME280;15572;48.810;9.148;2023-04-29T15:35:02;98253.50;;;14.66;85.12
28312;BME280;15572;48.810;9.148;2023-04-29T15:40:01;98251.97;;;14.45;85.18
28312;BME280;15572;48.810;9.148;2023-04-29T15:44:59;98249.53;;;14.30;87.29
28312;BME280;15572;48.810;9.148;2023-04-29T15:49:55;98250.13;;;14.39;88.13
28312;BME280;15572;48.810;9.148;2023-04-29T15:54:52;98261.00;;;14.39;88.29
28312;BME280;15572;48.810;9.148;2023-04-29T15:59:48;98261.25;;;14.31;88.46
28312;BME280;15572;48.810;9.148;2023-04-29T16:04:46;98257.69;;;14.30;89.90
28312;BME280;15572;48.810;9.148;2023-04-29T16:09:42;98262.97;;;14.25;89.52
28312;BME280;15572;48.810;9.148;2023-04-29T16:14:40;98267.59;;;14.18;90.68
28312;BME280;15572;48.810;9.148;2023-04-29T16:19:36;98264.25;;;14.16;90.42
28312;BME280;15572;48.810;9.148;2023-04-29T16:24:34;98268.25;;;14.14;90.05
28312;BME280;15572;48.810;9.148;2023-04-29T16:29:30;98274.13;;;14.11;87.96
28312;BME280;15572;48.810;9.148;2023-04-29T16:34:27;98270.38;;;14.05;87.67
28312;BME280;15572;48.810;9.148;2023-04-29T16:39:23;98282.34;;;14.04;88.82
28312;BME280;15572;48.810;9.148;2023-04-29T16:44:21;98276.25;;;14.09;88.99
28312;BME280;15572;48.810;9.148;2023-04-29T16:49:23;98276.47;;;14.01;89.74
28312;BME280;15572;48.810;9.148;2023-04-29T16:54:20;98277.97;;;13.97;90.10
28312;BME280;15572;48.810;9.148;2023-04-29T16:59:16;98283.84;;;13.94;89.92
28312;BME280;15572;48.810;9.148;2023-04-29T17:04:14;98281.75;;;13.89;89.19
28312;BME280;15572;48.810;9.148;2023-04-29T17:09:11;98293.91;;;13.86;89.28
28312;BME280;15572;48.810;9.148;2023-04-29T17:14:07;98300.00;;;13.82;89.72
28312;BME280;15572;48.810;9.148;2023-04-29T17:19:04;98293.34;;;13.78;90.13
28312;BME280;15572;48.810;9.148;2023-04-29T17:24:02;98288.94;;;13.70;89.45
28312;BME280;15572;48.810;9.148;2023-04-29T17:28:58;98295.88;;;13.66;90.01
28312;BME280;15572;48.810;9.148;2023-04-29T17:33:55;98290.19;;;13.68;90.81
28312;BME280;15572;48.810;9.148;2023-04-29T17:38:59;98294.00;;;13.54;91.59
28312;BME280;15572;48.810;9.148;2023-04-29T17:49:55;98287.53;;;13.41;92.64
28312;BME280;15572;48.810;9.148;2023-04-29T17:54:52;98293.41;;;13.38;90.19
28312;BME280;15572;48.810;9.148;2023-04-29T17:59:49;98295.94;;;13.33;90.18
28312;BME280;15572;48.810;9.148;2023-04-29T18:04:45;98298.03;;;13.31;91.51
28312;BME280;15572;48.810;9.148;2023-04-29T18:09:43;98299.91;;;13.31;91.73
28312;BME280;15572;48.810;9.148;2023-04-29T18:14:40;98299.69;;;13.26;93.40
28312;BME280;15572;48.810;9.148;2023-04-29T18:19:36;98309.53;;;13.20;95.37
28312;BME280;15572;48.810;9.148;2023-04-29T18:24:33;98313.94;;;13.21;95.70
28312;BME280;15572;48.810;9.148;2023-04-29T18:29:30;98309.56;;;13.14;97.73
28312;BME280;15572;48.810;9.148;2023-04-29T18:34:27;98317.03;;;13.05;98.91
28312;BME280;15572;48.810;9.148;2023-04-29T18:39:23;98301.34;;;12.94;99.40
28312;BME280;15572;48.810;9.148;2023-04-29T18:44:20;98319.13;;;12.83;100.00
28312;BME280;15572;48.810;9.148;2023-04-29T18:49:18;98321.84;;;12.77;100.00
28312;BME280;15572;48.810;9.148;2023-04-29T18:54:16;98317.44;;;12.69;100.00
28312;BME280;15572;48.810;9.148;2023-04-29T18:59:13;98325.38;;;12.64;100.00
28312;BME280;15572;48.810;9.148;2023-04-29T19:04:13;98330.59;;;12.59;100.00
28312;BME280;15572;48.810;9.148;2023-04-29T19:09:11;98338.91;;;12.51;100.00
28312;BME280;15572;48.810;9.148;2023-04-29T19:14:07;98339.13;;;12.43;100.00
28312;BME280;15572;48.810;9.148;2023-04-29T19:19:04;98339.72;;;12.32;100.00
28312;BME280;15572;48.810;9.148;2023-04-29T19:24:01;98346.94;;;12.18;100.00
28312;BME280;15572;48.810;9.148;2023-04-29T19:28:59;98347.34;;;12.08;100.00
28312;BME280;15572;48.810;9.148;2023-04-29T19:33:55;98357.34;;;12.01;100.00
28312;BME280;15572;48.810;9.148;2023-04-29T19:38:52;98361.94;;;12.01;100.00
28312;BME280;15572;48.810;9.148;2023-04-29T19:43:49;98368.59;;;11.98;100.00
28312;BME280;15572;48.810;9.148;2023-04-29T19:48:47;98364.78;;;11.93;100.00
28312;BME280;15572;48.810;9.148;2023-04-29T19:53:43;98358.28;;;11.87;100.00
28312;BME280;15572;48.810;9.148;2023-04-29T19:58:40;98364.56;;;11.88;100.00
28312;BME280;15572;48.810;9.148;2023-04-29T20:03:36;98372.47;;;11.82;100.00
28312;BME280;15572;48.810;9.148;2023-04-29T20:08:35;98370.13;;;11.73;100.00
28312;BME280;15572;48.810;9.148;2023-04-29T20:13:31;98368.41;;;11.72;100.00
28312;BME280;15572;48.810;9.148;2023-04-29T20:18:28;98370.03;;;11.66;100.00
28312;BME280;15572;48.810;9.148;2023-04-29T20:23:24;98367.31;;;11.66;100.00
28312;BME280;15572;48.810;9.148;2023-04-29T20:28:22;98368.59;;;11.64;100.00
28312;BME280;15572;48.810;9.148;2023-04-29T20:33:19;98383.78;;;11.65;100.00
28312;BME280;15572;48.810;9.148;2023-04-29T20:38:15;98373.78;;;11.65;100.00
28312;BME280;15572;48.810;9.148;2023-04-29T20:43:12;98385.47;;;11.66;100.00
28312;BME280;15572;48.810;9.148;2023-04-29T20:48:09;98384.59;;;11.59;100.00
28312;BME280;15572;48.810;9.148;2023-04-29T20:59:01;98383.91;;;11.50;100.00
28312;BME280;15572;48.810;9.148;2023-04-29T21:04:04;98398.34;;;11.57;100.00
28312;BME280;15572;48.810;9.148;2023-04-29T21:09:04;98397.50;;;11.57;100.00
28312;BME280;15572;48.810;9.148;2023-04-29T21:14:15;98386.66;;;11.57;100.00
28312;BME280;15572;48.810;9.148;2023-04-29T21:19:14;98389.44;;;11.63;100.00
28312;BME280;15572;48.810;9.148;2023-04-29T21:24:10;98392.38;;;11.68;100.00
28312;BME280;15572;48.810;9.148;2023-04-29T21:29:09;98396.78;;;11.69;100.00
28312;BME280;15572;48.810;9.148;2023-04-29T21:34:05;98389.94;;;11.73;100.00
28312;BME280;15572;48.810;9.148;2023-04-29T21:39:03;98382.16;;;11.70;100.00
28312;BME280;15572;48.810;9.148;2023-04-29T21:44:00;98386.63;;;11.78;100.00
28312;BME280;15572;48.810;9.148;2023-04-29T21:48:57;98382.69;;;11.80;100.00
28312;BME280;15572;48.810;9.148;2023-04-29T21:53:54;98391.06;;;11.86;100.00
28312;BME280;15572;48.810;9.148;2023-04-29T21:58:53;98402.13;;;11.84;100.00
28312;BME280;15572;48.810;9.148;2023-04-29T22:03:50;98397.72;;;11.83;100.00
28312;BME280;15572;48.810;9.148;2023-04-29T22:08:46;98404.81;;;11.84;100.00
28312;BME280;15572;48.810;9.148;2023-04-29T22:13:43;98407.34;;;11.86;100.00
28312;BME280;15572;48.810;9.148;2023-04-29T22:18:41;98407.13;;;11.87;100.00
28312;BME280;15572;48.810;9.148;2023-04-29T22:23:37;98403.19;;;11.90;100.00
28312;BME280;15572;48.810;9.148;2023-04-29T22:28:34;98404.03;;;11.90;100.00
28312;BME280;15572;48.810;9.148;2023-04-29T22:33:32;98401.50;;;11.89;100.00
28312;BME280;15572;48.810;9.148;2023-04-29T22:38:33;98418.22;;;11.92;100.00
28312;BME280;15572;48.810;9.148;2023-04-29T22:43:32;98419.91;;;11.93;100.00
28312;BME280;15572;48.810;9.148;2023-04-29T22:48:28;98414.88;;;11.90;100.00
28312;BME280;15572;48.810;9.148;2023-04-29T22:53:25;98419.28;;;11.91;100.00
28312;BME280;15572;48.810;9.148;2023-04-29T22:58:24;98419.47;;;11.90;100.00
28312;BME280;15572;48.810;9.148;2023-04-29T23:03:21;98420.69;;;11.87;100.00
28312;BME280;15572;48.810;9.148;2023-04-29T23:08:18;98414.22;;;11.88;100.00
28312;BME280;15572;48.810;9.148;2023-04-29T23:13:14;98416.50;;;11.85;100.00
28312;BME280;15572;48.810;9.148;2023-04-29T23:18:12;98416.72;;;11.83;100.00
28312;BME280;15572;48.810;9.148;2023-04-29T23:23:09;98414.41;;;11.80;100.00
28312;BME280;15572;48.810;9.148;2023-04-29T23:28:05;98408.53;;;11.76;100.00
28312;BME280;15572;48.810;9.148;2023-04-29T23:33:02;98417.22;;;11.72;100.00
28312;BME280;15572;48.810;9.148;2023-04-29T23:38:00;98412.00;;;11.70;100.00
28312;BME280;15572;48.810;9.148;2023-04-29T23:42:56;98424.72;;;11.70;100.00
28312;BME280;15572;48.810;9.148;2023-04-29T23:47:53;98421.38;;;11.68;100.00
28312;BME280;15572;48.810;9.148;2023-04-29T23:52:49;98425.31;;;11.65;100.00
28312;BME280;15572;48.810;9.148;2023-04-29T23:57:47;98433.44;;;11.65;100.00
